Time;durP1;ratioP1;P1;durP2;ratioP2;P2;SDS_P1;SDS_P2;PMS_P1;PMS_P2;Temp;Humidity;BMP_temperature;BMP_pressure;BME280_temperature;BME280_humidity;BME280_pressure;Samples;Min_cycle;Max_cycle;Signal;HPM_P1;HPM_P2
2024/03/20 05:00:14;;;;;;;9.85;6.10;;;8.30;99.90;;;;;;5968457;23;20390;31
2024/03/20 05:02:41;;;;;;;8.95;6.00;;;8.20;99.90;;;;;;4917006;29;20286;-69
2024/03/20 05:05:09;;;;;;;11.05;6.90;;;8.20;99.90;;;;;;4913866;29;20229;-70
2024/03/20 05:07:36;;;;;;;9.32;6.55;;;8.20;99.90;;;;;;4914536;29;20294;-71
2024/03/20 05:10:03;;;;;;;6.43;5.82;;;8.20;99.90;;;;;;4913697;29;20245;-71
2024/03/20 05:12:29;;;;;;;10.55;7.80;;;8.20;99.90;;;;;;4910115;29;20313;-70
2024/03/20 05:14:55;;;;;;;10.18;6.95;;;8.20;99.90;;;;;;4908450;29;20655;-71
2024/03/20 05:17:23;;;;;;;12.13;7.73;;;8.20;99.90;;;;;;4912070;29;20210;-72
2024/03/20 05:19:49;;;;;;;11.07;7.38;;;8.20;99.90;;;;;;4908708;29;20937;-72
2024/03/20 05:22:16;;;;;;;7.67;6.00;;;8.20;99.90;;;;;;4909673;29;20233;-72
2024/03/20 05:24:42;;;;;;;10.88;7.20;;;8.20;99.90;;;;;;4908154;29;20222;-72
2024/03/20 05:27:08;;;;;;;8.30;5.77;;;8.30;99.90;;;;;;4909557;29;20211;-71
2024/03/20 05:29:34;;;;;;;13.38;8.50;;;8.30;99.90;;;;;;4908537;29;20207;-70
2024/03/20 05:32:01;;;;;;;7.77;7.00;;;8.30;99.90;;;;;;4908278;29;20254;-70
2024/03/20 05:34:28;;;;;;;7.65;6.90;;;8.30;99.90;;;;;;4909317;29;20215;-70
2024/03/20 05:36:55;;;;;;;9.80;7.85;;;8.40;99.90;;;;;;4905204;29;20245;-70
2024/03/20 05:39:21;;;;;;;9.85;7.00;;;8.40;99.90;;;;;;4908548;29;20221;-70
2024/03/20 05:41:48;;;;;;;11.13;8.48;;;8.40;99.90;;;;;;4907569;29;20309;-70
2024/03/20 05:44:16;;;;;;;9.40;7.53;;;8.40;99.90;;;;;;4910127;29;20210;-70
2024/03/20 05:46:44;;;;;;;11.63;7.55;;;8.50;99.90;;;;;;4910374;29;20207;-70
2024/03/20 05:49:10;;;;;;;12.43;6.47;;;8.50;99.90;;;;;;4907470;29;20210;-70
2024/03/20 05:51:38;;;;;;;13.40;6.97;;;8.50;99.90;;;;;;4909916;29;20235;-71
2024/03/20 05:54:04;;;;;;;9.35;6.55;;;8.50;99.90;;;;;;4906760;29;20580;-71
2024/03/20 05:56:30;;;;;;;10.20;6.93;;;8.50;99.90;;;;;;4902622;29;20680;-71
2024/03/20 05:58:56;;;;;;;9.35;7.03;;;8.60;99.90;;;;;;4907621;29;20216;-70
2024/03/20 06:01:23;;;;;;;12.50;7.40;;;8.60;99.90;;;;;;4908727;29;20237;-70
2024/03/20 06:03:49;;;;;;;9.40;6.43;;;8.60;99.90;;;;;;4904975;29;20575;-71
2024/03/20 06:06:15;;;;;;;9.50;6.50;;;8.50;99.90;;;;;;4906376;29;20205;-71
2024/03/20 06:08:42;;;;;;;9.77;7.65;;;8.50;99.90;;;;;;4907590;29;20218;-70
2024/03/20 06:11:09;;;;;;;11.30;7.15;;;8.50;99.90;;;;;;4909794;29;20281;-71
2024/03/20 06:13:35;;;;;;;15.88;7.07;;;8.50;99.90;;;;;;4913706;29;20232;-71
2024/03/20 06:16:01;;;;;;;14.57;8.37;;;8.50;99.90;;;;;;4911350;29;20206;-70
2024/03/20 06:18:27;;;;;;;10.75;7.15;;;8.40;99.90;;;;;;4910824;29;20562;-70
2024/03/20 06:20:55;;;;;;;16.27;7.73;;;8.40;99.90;;;;;;4910186;29;20232;-71
2024/03/20 06:23:21;;;;;;;10.00;7.45;;;8.50;99.90;;;;;;4914907;29;20217;-70
2024/03/20 06:25:49;;;;;;;9.60;7.67;;;8.50;99.90;;;;;;4913774;29;20210;-70
2024/03/20 06:28:15;;;;;;;11.13;7.28;;;8.50;99.90;;;;;;4907637;29;20846;-71
2024/03/20 06:30:41;;;;;;;8.80;6.53;;;8.50;99.90;;;;;;4912424;29;20230;-71
2024/03/20 06:33:08;;;;;;;9.82;6.00;;;8.60;99.90;;;;;;4912781;29;20494;-71
2024/03/20 06:35:34;;;;;;;20.63;7.93;;;8.70;99.90;;;;;;4910504;29;20625;-70
2024/03/20 06:38:01;;;;;;;10.48;6.32;;;8.70;99.90;;;;;;4910790;29;20672;-69
2024/03/20 06:40:32;;;;;;;13.57;7.78;;;8.80;99.90;;;;;;4912326;29;20203;-72
2024/03/20 06:42:59;;;;;;;10.23;7.75;;;8.80;99.90;;;;;;4913247;29;20210;-70
2024/03/20 06:45:31;;;;;;;10.18;6.82;;;8.80;99.90;;;;;;4910872;29;20290;-70
2024/03/20 06:47:57;;;;;;;13.35;8.02;;;8.80;99.90;;;;;;4901494;29;20420;-70
2024/03/20 06:50:27;;;;;;;9.03;6.87;;;8.80;99.90;;;;;;4907344;29;20204;-71
2024/03/20 06:52:53;;;;;;;6.90;6.22;;;8.80;99.90;;;;;;4911561;29;20226;-72
2024/03/20 06:55:20;;;;;;;9.57;5.80;;;8.80;99.90;;;;;;4915752;29;20221;-72
2024/03/20 06:57:45;;;;;;;12.68;9.07;;;8.70;99.90;;;;;;4912972;29;20968;-70
2024/03/20 07:00:17;;;;;;;8.00;6.77;;;8.80;99.90;;;;;;4912672;29;20313;-72
2024/03/20 07:02:44;;;;;;;9.88;7.25;;;8.80;99.90;;;;;;4912558;29;20819;-71
2024/03/20 07:05:11;;;;;;;12.65;7.75;;;8.80;99.90;;;;;;4912517;29;20221;-71
2024/03/20 07:07:36;;;;;;;17.15;7.13;;;8.80;99.90;;;;;;4908536;29;20210;-70
2024/03/20 07:10:03;;;;;;;11.10;6.47;;;8.80;99.90;;;;;;4912608;29;20546;-70
2024/03/20 07:12:30;;;;;;;10.40;7.20;;;8.80;99.90;;;;;;4914840;29;20226;-71
2024/03/20 07:14:57;;;;;;;11.23;7.05;;;8.80;99.90;;;;;;4906157;29;20302;-71
2024/03/20 07:17:24;;;;;;;11.35;7.45;;;8.70;99.90;;;;;;4910868;29;20218;-70
2024/03/20 07:19:53;;;;;;;11.60;9.35;;;8.70;99.90;;;;;;4909800;29;20286;-71
2024/03/20 07:22:19;;;;;;;7.55;6.85;;;8.60;99.90;;;;;;4909944;29;20235;-70
2024/03/20 07:24:46;;;;;;;12.65;6.32;;;8.50;99.90;;;;;;4914445;29;20210;-69
2024/03/20 07:27:12;;;;;;;14.35;7.35;;;8.40;99.90;;;;;;4904759;29;20234;-70
2024/03/20 07:29:39;;;;;;;15.37;8.20;;;8.40;99.90;;;;;;4909622;29;20677;-70
2024/03/20 07:32:07;;;;;;;16.10;8.82;;;8.40;99.90;;;;;;4906715;29;20237;-69
2024/03/20 07:34:35;;;;;;;9.35;7.72;;;8.40;99.90;;;;;;4910824;29;20211;-70
2024/03/20 07:37:01;;;;;;;9.27;7.10;;;8.40;99.90;;;;;;4912496;29;20941;-69
2024/03/20 07:39:32;;;;;;;13.83;8.27;;;8.50;99.90;;;;;;4912777;29;20325;-70
2024/03/20 07:41:58;;;;;;;11.57;7.93;;;8.50;99.90;;;;;;4911058;29;20239;-70
2024/03/20 07:44:25;;;;;;;16.67;7.93;;;8.60;99.90;;;;;;4908671;29;20206;-70
2024/03/20 07:46:51;;;;;;;13.75;8.25;;;8.60;99.90;;;;;;4911816;29;20548;-69
2024/03/20 07:49:17;;;;;;;16.20;9.03;;;8.70;99.90;;;;;;4907003;29;20674;-70
2024/03/20 07:51:45;;;;;;;11.23;8.55;;;8.70;99.90;;;;;;4906046;29;20242;-70
2024/03/20 07:54:12;;;;;;;20.95;8.27;;;8.80;99.90;;;;;;4910192;29;20207;-70
2024/03/20 07:56:38;;;;;;;14.43;9.18;;;8.80;99.90;;;;;;4908369;29;20274;-70
2024/03/20 07:59:05;;;;;;;9.23;7.25;;;8.80;99.90;;;;;;4903507;29;20211;-73
2024/03/20 08:01:31;;;;;;;11.80;8.57;;;8.80;99.90;;;;;;4907263;29;20239;-72
2024/03/20 08:03:57;;;;;;;18.90;8.30;;;8.90;99.90;;;;;;4908776;29;20654;-73
2024/03/20 08:06:24;;;;;;;13.25;8.30;;;8.90;99.90;;;;;;4913411;29;20502;-71
2024/03/20 08:08:52;;;;;;;9.80;8.02;;;9.00;99.90;;;;;;4911818;29;20245;-70
2024/03/20 08:11:18;;;;;;;18.73;9.45;;;9.10;99.90;;;;;;4912258;29;20237;-71
2024/03/20 08:13:45;;;;;;;14.47;9.23;;;9.30;99.90;;;;;;4911086;29;20203;-72
2024/03/20 08:16:11;;;;;;;14.02;8.68;;;9.40;99.90;;;;;;4907227;29;20488;-71
2024/03/20 08:18:38;;;;;;;12.10;8.40;;;9.50;99.90;;;;;;4908006;29;20226;-71
2024/03/20 08:21:05;;;;;;;13.02;9.55;;;9.60;99.90;;;;;;4912277;29;20226;-71
2024/03/20 08:23:31;;;;;;;45.70;21.38;;;9.80;99.90;;;;;;4914233;29;20658;-71
2024/03/20 08:25:59;;;;;;;91.40;42.33;;;9.90;99.90;;;;;;4913412;29;20221;-72
2024/03/20 08:28:26;;;;;;;21.40;13.27;;;10.00;99.90;;;;;;4913665;29;20262;-70
2024/03/20 08:30:52;;;;;;;23.90;12.63;;;10.10;99.90;;;;;;4912639;29;20330;-70
2024/03/20 08:33:20;;;;;;;20.23;13.63;;;10.30;99.90;;;;;;4907588;29;20557;-72
2024/03/20 08:35:54;;;;;;;24.20;13.88;;;10.50;99.90;;;;;;4911730;29;20518;-71
2024/03/20 08:38:20;;;;;;;9.13;8.20;;;10.70;99.90;;;;;;4907505;29;20210;-71
2024/03/20 08:40:46;;;;;;;11.50;8.40;;;10.80;99.90;;;;;;4911299;29;20496;-70
2024/03/20 08:43:15;;;;;;;14.20;10.70;;;10.90;99.90;;;;;;4908961;29;20822;-72
2024/03/20 08:45:41;;;;;;;10.83;8.57;;;11.00;99.90;;;;;;4908553;29;20471;-72
2024/03/20 08:48:08;;;;;;;14.57;8.50;;;11.10;99.90;;;;;;4912228;29;20593;-71
2024/03/20 08:50:39;;;;;;;10.87;9.70;;;11.10;99.90;;;;;;4907799;29;20489;-72
2024/03/20 08:53:07;;;;;;;11.57;9.10;;;11.20;99.90;;;;;;4909153;29;21032;-73
2024/03/20 08:55:33;;;;;;;11.37;8.60;;;11.30;99.90;;;;;;4912800;29;20469;-72
2024/03/20 08:58:00;;;;;;;10.47;9.33;;;11.40;99.90;;;;;;4904504;29;20475;-72
2024/03/20 09:00:27;;;;;;;14.30;11.43;;;11.50;99.90;;;;;;4901061;29;20965;-72
2024/03/20 09:02:53;;;;;;;13.80;8.87;;;11.60;99.90;;;;;;4904740;29;20550;-70
2024/03/20 09:05:21;;;;;;;13.70;8.50;;;11.70;99.90;;;;;;4909915;29;20483;-70
2024/03/20 09:07:47;;;;;;;13.03;9.10;;;11.90;99.90;;;;;;4911009;29;20502;-71
2024/03/20 09:10:13;;;;;;;16.63;10.10;;;12.00;99.90;;;;;;4910844;29;20755;-70
2024/03/20 09:12:40;;;;;;;17.07;12.33;;;12.20;99.90;;;;;;4902181;29;20498;-70
2024/03/20 09:15:07;;;;;;;16.03;10.43;;;12.40;99.90;;;;;;4902042;29;20492;-70
2024/03/20 09:17:35;;;;;;;14.10;8.30;;;12.50;99.90;;;;;;4911025;29;20521;-69
2024/03/20 09:20:04;;;;;;;22.23;10.00;;;12.60;99.90;;;;;;4910547;29;20712;-70
2024/03/20 09:22:31;;;;;;;16.37;9.40;;;12.70;99.90;;;;;;4911811;29;20487;-71
2024/03/20 09:24:57;;;;;;;13.47;8.50;;;12.90;99.90;;;;;;4910482;29;20523;-70
2024/03/20 09:27:24;;;;;;;13.40;8.83;;;13.00;99.90;;;;;;4903675;29;20559;-73
2024/03/20 09:29:50;;;;;;;15.30;10.30;;;13.10;99.90;;;;;;4906297;29;20225;-72
2024/03/20 09:32:16;;;;;;;13.47;8.97;;;13.20;99.90;;;;;;4912697;29;20494;-70
2024/03/20 09:34:43;;;;;;;11.53;8.97;;;13.40;99.90;;;;;;4907946;29;20217;-71
2024/03/20 09:37:11;;;;;;;14.33;9.13;;;13.50;99.90;;;;;;4911005;29;20561;-71
2024/03/20 09:39:38;;;;;;;14.17;9.43;;;13.70;99.90;;;;;;4911463;29;20471;-71
2024/03/20 09:42:06;;;;;;;12.93;10.30;;;13.70;99.90;;;;;;4905372;29;20493;-72
2024/03/20 09:44:32;;;;;;;14.80;9.63;;;13.80;99.90;;;;;;4908784;29;20482;-71
2024/03/20 09:47:00;;;;;;;17.00;10.33;;;13.90;99.90;;;;;;4900390;29;20517;-71
2024/03/20 09:49:26;;;;;;;12.13;8.13;;;13.80;99.90;;;;;;4911656;29;20474;-70
2024/03/20 09:51:54;;;;;;;15.50;9.77;;;13.80;99.90;;;;;;4910902;29;20550;-68
2024/03/20 09:54:20;;;;;;;14.37;8.33;;;14.40;99.90;;;;;;4906420;29;20475;-70
2024/03/20 09:56:47;;;;;;;14.60;9.50;;;14.40;99.90;;;;;;4909940;29;20477;-70
2024/03/20 09:59:13;;;;;;;15.17;9.80;;;14.40;99.90;;;;;;4901985;29;20664;-71
2024/03/20 10:01:40;;;;;;;13.57;9.93;;;14.30;99.90;;;;;;4907945;29;20867;-70
2024/03/20 10:04:06;;;;;;;11.97;8.70;;;14.10;99.90;;;;;;4908827;29;20257;-70
2024/03/20 10:06:36;;;;;;;16.23;9.50;;;14.10;99.90;;;;;;4906924;29;20574;-70
2024/03/20 10:09:07;;;;;;;17.00;10.33;;;14.20;99.90;;;;;;4908626;29;20481;-70
2024/03/20 10:11:34;;;;;;;13.73;9.80;;;14.30;99.90;;;;;;4906822;29;20494;-70
2024/03/20 10:14:00;;;;;;;15.00;10.17;;;14.50;99.90;;;;;;4911000;29;20513;-70
2024/03/20 10:16:29;;;;;;;21.07;10.10;;;14.50;99.90;;;;;;4907010;29;20466;-72
2024/03/20 10:18:55;;;;;;;17.50;10.10;;;14.70;99.90;;;;;;4912272;29;20823;-71
2024/03/20 10:21:22;;;;;;;12.40;8.93;;;14.80;99.90;;;;;;4902916;29;20569;-72
2024/03/20 10:23:52;;;;;;;11.60;9.00;;;14.90;99.90;;;;;;4907863;29;20849;-72
2024/03/20 10:26:20;;;;;;;19.43;10.27;;;14.90;99.90;;;;;;4904087;29;20556;-72
2024/03/20 10:28:50;;;;;;;15.90;10.80;;;14.90;99.90;;;;;;4899640;29;20970;-72
2024/03/20 10:31:21;;;;;;;20.70;11.00;;;14.90;99.90;;;;;;4902835;29;20993;-72
2024/03/20 10:33:49;;;;;;;21.00;12.27;;;14.90;99.90;;;;;;4907450;29;20499;-72
2024/03/20 10:36:18;;;;;;;15.03;10.23;;;14.90;99.90;;;;;;4909865;29;20490;-72
2024/03/20 10:38:44;;;;;;;23.20;10.97;;;15.00;99.90;;;;;;4899536;29;20466;-72
2024/03/20 10:41:13;;;;;;;15.93;10.77;;;15.10;99.90;;;;;;4907690;29;20490;-72
2024/03/20 10:43:41;;;;;;;21.60;14.10;;;15.20;99.90;;;;;;4906330;29;20862;-71
2024/03/20 10:46:14;;;;;;;22.37;10.20;;;15.20;99.90;;;;;;4906298;29;20946;-72
2024/03/20 10:48:40;;;;;;;17.70;11.40;;;15.30;99.90;;;;;;4909652;29;20482;-71
2024/03/20 10:51:13;;;;;;;19.50;12.70;;;15.40;99.90;;;;;;4906159;29;20498;-72
2024/03/20 10:53:39;;;;;;;22.00;11.30;;;15.40;99.90;;;;;;4908344;29;20546;-71
2024/03/20 10:56:07;;;;;;;18.23;11.23;;;15.50;99.90;;;;;;4908511;29;20498;-71
2024/03/20 10:58:33;;;;;;;19.60;10.47;;;15.50;99.90;;;;;;4909209;29;20474;-71
2024/03/20 11:01:02;;;;;;;20.77;12.17;;;15.70;99.90;;;;;;4911612;29;20522;-71
2024/03/20 11:03:41;;;;;;;18.77;10.20;;;15.70;99.90;;;;;;4910585;29;20990;-71
2024/03/20 11:06:39;;;;;;;15.50;10.73;;;15.80;99.90;;;;;;4906147;29;20470;-71
2024/03/20 11:09:22;;;;;;;18.40;10.80;;;16.00;99.90;;;;;;4910878;29;20471;-70
2024/03/20 11:11:55;;;;;;;20.27;12.40;;;16.10;99.90;;;;;;4912256;29;20486;-72
2024/03/20 11:14:34;;;;;;;21.27;12.73;;;16.20;99.90;;;;;;4907299;29;20478;-72
2024/03/20 11:17:03;;;;;;;19.77;11.60;;;16.50;99.90;;;;;;4909732;29;20553;-71
2024/03/20 11:19:29;;;;;;;19.00;11.40;;;16.60;99.90;;;;;;4911219;29;20493;-71
2024/03/20 11:21:58;;;;;;;16.67;11.43;;;16.60;99.90;;;;;;4912392;29;20486;-70
2024/03/20 11:24:27;;;;;;;20.07;11.00;;;16.80;99.90;;;;;;4912058;29;20206;-69
2024/03/20 11:26:56;;;;;;;15.80;10.87;;;16.80;99.90;;;;;;4911100;29;20835;-70
2024/03/20 11:29:21;;;;;;;16.73;10.73;;;16.80;99.90;;;;;;4906474;29;20497;-70
2024/03/20 11:31:48;;;;;;;19.63;12.20;;;16.70;99.90;;;;;;4908919;29;20586;-70
2024/03/20 11:34:15;;;;;;;23.13;11.43;;;16.70;99.90;;;;;;4910028;29;20227;-70
2024/03/20 11:36:43;;;;;;;14.47;11.10;;;16.70;99.90;;;;;;4910151;29;20521;-71
2024/03/20 11:39:10;;;;;;;15.40;11.40;;;16.70;99.90;;;;;;4910424;29;20485;-71
2024/03/20 11:41:37;;;;;;;16.83;11.50;;;16.80;99.90;;;;;;4911404;29;20486;-71
2024/03/20 11:44:04;;;;;;;17.30;11.63;;;16.90;99.90;;;;;;4910791;29;20471;-70
2024/03/20 11:46:31;;;;;;;18.77;12.83;;;16.80;99.90;;;;;;4910348;29;20462;-71
2024/03/20 11:48:57;;;;;;;17.53;11.37;;;16.80;99.90;;;;;;4913397;29;20466;-70
2024/03/20 11:51:26;;;;;;;19.67;11.40;;;16.80;99.90;;;;;;4906344;29;20572;-71
2024/03/20 11:53:53;;;;;;;15.60;10.27;;;16.80;99.90;;;;;;4912454;29;21184;-71
2024/03/20 11:56:22;;;;;;;15.87;10.53;;;16.80;99.90;;;;;;4910926;29;21078;-71
2024/03/20 11:58:49;;;;;;;16.90;10.90;;;16.70;99.90;;;;;;4911065;29;20468;-70
2024/03/20 12:01:16;;;;;;;18.17;9.70;;;16.80;99.90;;;;;;4907886;29;20513;-71
2024/03/20 12:03:42;;;;;;;18.47;10.00;;;17.00;99.90;;;;;;4910016;29;20482;-72
2024/03/20 12:06:09;;;;;;;20.90;12.47;;;17.00;99.90;;;;;;4910224;29;20505;-71
2024/03/20 12:08:37;;;;;;;21.80;10.47;;;17.00;99.90;;;;;;4911024;29;20827;-71
2024/03/20 12:11:18;;;;;;;16.10;10.13;;;16.90;99.90;;;;;;4908270;29;20572;-71
2024/03/20 12:13:46;;;;;;;16.07;10.30;;;17.00;99.90;;;;;;4911559;29;20485;-71
2024/03/20 12:16:13;;;;;;;16.37;11.80;;;17.10;99.90;;;;;;4907624;29;20561;-72
2024/03/20 12:18:39;;;;;;;14.73;9.97;;;17.00;99.90;;;;;;4910526;29;20588;-71
2024/03/20 12:21:06;;;;;;;18.30;10.50;;;17.10;99.90;;;;;;4905646;29;20495;-72
2024/03/20 12:23:32;;;;;;;14.40;8.97;;;17.10;99.90;;;;;;4908268;29;20224;-71
2024/03/20 12:26:00;;;;;;;19.40;11.73;;;17.20;99.90;;;;;;4908632;29;20470;-72
2024/03/20 12:28:26;;;;;;;15.53;9.80;;;17.30;99.90;;;;;;4905960;29;20270;-70
2024/03/20 12:30:53;;;;;;;15.77;9.60;;;17.30;99.90;;;;;;4901522;29;20620;-71
2024/03/20 12:33:20;;;;;;;12.10;9.60;;;17.30;99.90;;;;;;4909751;29;20490;-71
2024/03/20 12:35:47;;;;;;;13.00;9.83;;;17.30;99.90;;;;;;4904855;29;20561;-70
2024/03/20 12:38:13;;;;;;;14.70;10.50;;;17.30;99.90;;;;;;4907616;29;20467;-71
2024/03/20 12:40:40;;;;;;;14.83;10.90;;;17.40;99.90;;;;;;4907840;29;20779;-71
2024/03/20 12:43:07;;;;;;;10.90;8.83;;;17.50;99.90;;;;;;4907372;29;20215;-70
2024/03/20 12:45:34;;;;;;;11.90;9.17;;;17.60;99.90;;;;;;4910341;29;20969;-70
2024/03/20 12:48:00;;;;;;;12.20;9.40;;;17.60;99.90;;;;;;4906348;29;20470;-70
2024/03/20 12:50:27;;;;;;;20.93;9.67;;;17.60;99.90;;;;;;4908202;29;20481;-71
2024/03/20 12:52:53;;;;;;;14.87;11.03;;;17.60;99.90;;;;;;4907235;29;20234;-70
2024/03/20 12:55:19;;;;;;;13.27;9.73;;;17.60;99.90;;;;;;4909260;29;20508;-71
2024/03/20 12:57:45;;;;;;;22.20;11.10;;;17.60;99.90;;;;;;4910801;29;20213;-70
2024/03/20 13:00:16;;;;;;;17.80;10.90;;;17.60;99.90;;;;;;4908096;29;20797;-70
2024/03/20 13:02:43;;;;;;;20.27;12.63;;;17.50;99.90;;;;;;4910661;29;20665;-70
2024/03/20 13:05:13;;;;;;;16.50;10.30;;;17.40;99.90;;;;;;4907314;29;20594;-70
2024/03/20 13:07:38;;;;;;;17.13;10.63;;;17.30;99.90;;;;;;4909699;29;20489;-70
2024/03/20 13:10:07;;;;;;;16.70;10.47;;;17.20;99.90;;;;;;4911152;29;20470;-70
2024/03/20 13:12:33;;;;;;;17.27;11.77;;;17.10;99.90;;;;;;4909929;29;20238;-69
2024/03/20 13:15:01;;;;;;;20.83;11.47;;;17.00;99.90;;;;;;4908658;29;20511;-70
2024/03/20 13:17:28;;;;;;;17.50;10.20;;;16.90;99.90;;;;;;4910259;29;20733;-70
2024/03/20 13:19:56;;;;;;;10.23;8.93;;;16.80;99.90;;;;;;4908529;29;20562;-70
2024/03/20 13:22:22;;;;;;;13.57;10.03;;;16.90;99.90;;;;;;4906769;29;20871;-69
2024/03/20 13:24:49;;;;;;;19.80;10.93;;;16.90;99.90;;;;;;4909645;29;20467;-70
2024/03/20 13:27:17;;;;;;;18.30;10.30;;;16.90;99.90;;;;;;4908873;29;20490;-70
2024/03/20 13:29:46;;;;;;;14.17;9.20;;;16.90;99.90;;;;;;4909078;29;20841;-70
2024/03/20 13:32:18;;;;;;;15.33;11.00;;;16.90;99.90;;;;;;4907510;29;20487;-70
2024/03/20 13:34:46;;;;;;;14.00;8.73;;;16.90;99.90;;;;;;4906873;29;20494;-72
2024/03/20 13:37:16;;;;;;;15.87;10.57;;;17.00;99.90;;;;;;4900470;29;20966;-70
2024/03/20 13:39:49;;;;;;;15.87;11.20;;;17.00;99.90;;;;;;4905101;29;20797;-70
2024/03/20 13:42:33;;;;;;;13.70;9.10;;;17.00;99.90;;;;;;4902703;29;20562;-71
2024/03/20 13:45:00;;;;;;;17.37;10.93;;;16.90;99.90;;;;;;4904191;29;20944;-71
2024/03/20 13:47:26;;;;;;;13.97;10.67;;;17.00;99.90;;;;;;4905499;29;20470;-71
2024/03/20 13:49:54;;;;;;;12.67;10.93;;;17.00;99.90;;;;;;4902521;29;20463;-71
2024/03/20 13:52:20;;;;;;;13.30;10.00;;;16.90;99.90;;;;;;4897984;29;20242;-71
2024/03/20 13:54:46;;;;;;;13.30;9.53;;;16.90;99.90;;;;;;4897086;29;20498;-71
2024/03/20 13:57:13;;;;;;;12.40;8.17;;;16.90;99.90;;;;;;4909368;29;20211;-72
2024/03/20 13:59:40;;;;;;;15.40;9.37;;;16.90;99.90;;;;;;4906784;29;20493;-72
2024/03/20 14:02:24;;;;;;;12.63;9.40;;;17.00;99.90;;;;;;4900706;29;20501;-72
2024/03/20 14:04:50;;;;;;;12.73;9.30;;;17.00;99.90;;;;;;4903687;29;20550;-72
2024/03/20 14:07:17;;;;;;;23.17;10.00;;;17.00;99.90;;;;;;4905760;29;20462;-71
2024/03/20 14:09:45;;;;;;;14.93;10.20;;;17.10;99.90;;;;;;4902365;29;20475;-71
2024/03/20 14:12:15;;;;;;;15.67;9.90;;;17.00;99.90;;;;;;4905904;29;20573;-71
2024/03/20 14:14:42;;;;;;;18.40;10.33;;;16.90;99.90;;;;;;4905703;29;20885;-72
2024/03/20 14:17:13;;;;;;;16.80;11.90;;;16.80;99.90;;;;;;4908671;29;20919;-71
2024/03/20 14:19:40;;;;;;;17.03;9.93;;;16.60;99.90;;;;;;4901699;29;22059;-71
2024/03/20 14:22:09;;;;;;;18.83;12.00;;;16.50;99.90;;;;;;4901227;29;20507;-71
2024/03/20 14:24:39;;;;;;;16.73;10.67;;;16.30;99.90;;;;;;4899918;29;20467;-72
2024/03/20 14:27:08;;;;;;;16.30;9.63;;;16.20;99.90;;;;;;4903297;29;21262;-71
2024/03/20 14:29:34;;;;;;;18.47;11.77;;;16.20;99.90;;;;;;4901447;29;20501;-72
2024/03/20 14:32:01;;;;;;;18.23;11.90;;;16.10;99.90;;;;;;4906541;29;20493;-71
2024/03/20 14:34:28;;;;;;;14.77;10.40;;;16.10;99.90;;;;;;4911161;29;20865;-71
2024/03/20 14:36:55;;;;;;;18.43;11.70;;;16.00;99.90;;;;;;4909620;29;20554;-72
2024/03/20 14:39:22;;;;;;;17.60;11.17;;;15.90;99.90;;;;;;4909774;29;20918;-70
2024/03/20 14:41:49;;;;;;;16.43;10.10;;;15.90;99.90;;;;;;4905367;29;21194;-71
2024/03/20 14:44:16;;;;;;;17.10;10.70;;;15.90;99.90;;;;;;4909528;29;20482;-71
2024/03/20 14:46:42;;;;;;;16.40;10.23;;;15.90;99.90;;;;;;4907456;29;20934;-71
2024/03/20 14:49:09;;;;;;;16.43;11.30;;;16.00;99.90;;;;;;4909386;29;20462;-71
2024/03/20 14:51:37;;;;;;;17.20;10.97;;;16.10;99.90;;;;;;4906890;29;20501;-71
2024/03/20 14:54:04;;;;;;;17.57;10.87;;;16.20;99.90;;;;;;4910220;29;20494;-71
2024/03/20 14:56:30;;;;;;;17.37;10.30;;;16.30;99.90;;;;;;4906594;29;20513;-70
2024/03/20 14:58:58;;;;;;;15.27;10.37;;;16.30;99.90;;;;;;4913320;29;20937;-71
2024/03/20 15:01:24;;;;;;;16.30;10.20;;;16.30;99.90;;;;;;4914112;29;20760;-71
2024/03/20 15:03:51;;;;;;;17.90;10.40;;;16.30;99.90;;;;;;4914930;29;20973;-70
2024/03/20 15:06:18;;;;;;;14.07;11.40;;;16.30;99.90;;;;;;4911110;29;20486;-70
2024/03/20 15:08:46;;;;;;;13.97;10.93;;;16.30;99.90;;;;;;4913750;29;20944;-70
2024/03/20 15:11:14;;;;;;;14.33;10.17;;;16.20;99.90;;;;;;4914334;29;20513;-71
2024/03/20 15:13:41;;;;;;;16.53;8.80;;;16.20;99.90;;;;;;4911922;29;20502;-72
2024/03/20 15:16:12;;;;;;;11.67;9.40;;;16.20;99.90;;;;;;4907246;29;20494;-70
2024/03/20 15:18:39;;;;;;;13.83;8.60;;;16.20;99.90;;;;;;4911712;29;20515;-72
2024/03/20 15:21:12;;;;;;;10.30;8.53;;;16.20;99.90;;;;;;4911193;29;20505;-73
2024/03/20 15:23:38;;;;;;;12.80;9.33;;;16.30;99.90;;;;;;4910579;29;20840;-71
2024/03/20 15:26:04;;;;;;;14.07;9.80;;;16.30;99.90;;;;;;4908195;29;20482;-70
2024/03/20 15:28:31;;;;;;;14.00;9.37;;;16.30;99.90;;;;;;4910381;29;20470;-71
2024/03/20 15:30:57;;;;;;;11.80;8.90;;;16.40;99.90;;;;;;4905829;29;20486;-70
2024/03/20 15:33:25;;;;;;;11.47;10.20;;;16.30;99.90;;;;;;4910996;29;20493;-71
2024/03/20 15:35:51;;;;;;;15.37;11.10;;;16.30;99.90;;;;;;4909640;29;21494;-71
2024/03/20 15:38:17;;;;;;;12.83;8.63;;;16.30;99.90;;;;;;4912444;29;20474;-71
2024/03/20 15:40:43;;;;;;;13.57;9.27;;;16.30;99.90;;;;;;4910152;29;20234;-71
2024/03/20 15:43:10;;;;;;;11.40;9.70;;;16.30;99.90;;;;;;4902970;29;20471;-72
2024/03/20 15:45:38;;;;;;;14.23;8.67;;;16.30;99.90;;;;;;4905271;29;21336;-71
2024/03/20 15:48:08;;;;;;;9.93;8.20;;;16.20;99.90;;;;;;4909541;29;20477;-70
2024/03/20 15:50:35;;;;;;;12.27;8.33;;;16.20;99.90;;;;;;4910682;29;20490;-70
2024/03/20 15:53:01;;;;;;;13.33;6.57;;;16.10;99.90;;;;;;4912889;29;20489;-71
2024/03/20 15:55:28;;;;;;;9.23;6.13;;;16.00;99.90;;;;;;4911212;29;20479;-72
2024/03/20 15:57:54;;;;;;;9.63;7.23;;;16.00;99.90;;;;;;4909735;29;20470;-72
2024/03/20 16:00:20;;;;;;;12.90;7.87;;;15.90;99.90;;;;;;4908031;29;20569;-71
2024/03/20 16:02:48;;;;;;;12.50;8.30;;;15.90;99.90;;;;;;4910654;29;20563;-72
2024/03/20 16:05:15;;;;;;;8.50;6.20;;;15.90;99.90;;;;;;4912121;29;20471;-72
2024/03/20 16:07:50;;;;;;;8.90;7.30;;;15.80;99.90;;;;;;4908969;29;20479;-72
2024/03/20 16:10:17;;;;;;;10.33;7.60;;;15.80;99.90;;;;;;4911139;29;20470;-72
2024/03/20 16:12:44;;;;;;;9.10;7.40;;;15.80;99.90;;;;;;4911618;29;20497;-72
2024/03/20 16:15:10;;;;;;;8.10;6.53;;;15.80;99.90;;;;;;4906984;29;20963;-72
2024/03/20 16:17:38;;;;;;;8.10;7.30;;;15.70;99.90;;;;;;4912222;29;20955;-72
2024/03/20 16:20:06;;;;;;;8.93;7.13;;;15.70;99.90;;;;;;4914300;29;20471;-72
2024/03/20 16:22:33;;;;;;;9.70;7.53;;;15.70;99.90;;;;;;4910384;29;20487;-72
2024/03/20 16:25:00;;;;;;;8.03;7.23;;;15.70;99.90;;;;;;4912572;29;20471;-72
2024/03/20 16:27:27;;;;;;;9.70;8.70;;;15.70;99.90;;;;;;4909244;29;20471;-72
2024/03/20 16:29:53;;;;;;;8.80;7.07;;;15.60;99.90;;;;;;4911881;29;20516;-71
2024/03/20 16:32:20;;;;;;;9.30;6.60;;;15.60;99.90;;;;;;4908463;29;20498;-71
2024/03/20 16:34:46;;;;;;;10.07;9.00;;;15.50;99.90;;;;;;4911765;29;20234;-71
2024/03/20 16:37:12;;;;;;;8.03;6.20;;;15.50;99.90;;;;;;4906769;29;21152;-71
2024/03/20 16:39:38;;;;;;;11.77;8.10;;;15.50;99.90;;;;;;4912256;29;20214;-71
2024/03/20 16:42:08;;;;;;;16.10;8.30;;;15.40;99.90;;;;;;4913825;29;20977;-72
2024/03/20 16:44:33;;;;;;;8.67;6.70;;;15.40;99.90;;;;;;4907635;29;20215;-72
2024/03/20 16:47:00;;;;;;;10.17;8.73;;;15.40;99.90;;;;;;4908995;29;20542;-72
2024/03/20 16:49:26;;;;;;;18.43;7.00;;;15.30;99.90;;;;;;4910780;29;20303;-72
2024/03/20 16:51:55;;;;;;;11.27;7.20;;;15.20;99.90;;;;;;4906184;29;20510;-72
2024/03/20 16:54:20;;;;;;;9.20;8.30;;;15.20;99.90;;;;;;4908983;29;20608;-71
2024/03/20 16:56:50;;;;;;;9.00;6.90;;;15.10;99.90;;;;;;4912268;29;20470;-72
2024/03/20 16:59:17;;;;;;;11.07;8.00;;;15.10;99.90;;;;;;4911241;29;20207;-73
2024/03/20 17:01:44;;;;;;;11.77;7.43;;;15.10;99.90;;;;;;4913866;29;20814;-71
2024/03/20 17:04:10;;;;;;;11.87;7.00;;;15.00;99.90;;;;;;4908964;29;20463;-70
2024/03/20 17:06:38;;;;;;;10.60;6.93;;;15.00;99.90;;;;;;4911370;29;20787;-71
2024/03/20 17:09:04;;;;;;;10.53;6.77;;;14.90;99.90;;;;;;4907366;29;20578;-71
2024/03/20 17:11:31;;;;;;;9.57;7.27;;;14.90;99.90;;;;;;4913656;29;21197;-70
2024/03/20 17:13:57;;;;;;;9.30;7.33;;;14.80;99.90;;;;;;4915885;29;20517;-71
2024/03/20 17:16:25;;;;;;;8.53;6.83;;;14.80;99.90;;;;;;4911804;29;20961;-70
2024/03/20 17:18:51;;;;;;;10.27;6.93;;;14.70;99.90;;;;;;4909102;29;20206;-70
2024/03/20 17:21:18;;;;;;;10.33;7.50;;;14.70;99.90;;;;;;4908423;29;20498;-69
2024/03/20 17:23:44;;;;;;;11.20;7.63;;;14.60;99.90;;;;;;4911282;29;20997;-69
2024/03/20 17:26:12;;;;;;;10.63;7.93;;;14.60;99.90;;;;;;4910283;29;20470;-69
2024/03/20 17:28:38;;;;;;;32.93;15.73;;;14.50;99.90;;;;;;4909889;29;20210;-69
2024/03/20 17:31:04;;;;;;;32.03;14.37;;;14.40;99.90;;;;;;4911870;29;20486;-70
2024/03/20 17:33:33;;;;;;;15.70;10.67;;;14.30;99.90;;;;;;4906582;29;20502;-70
2024/03/20 17:36:04;;;;;;;17.63;10.90;;;14.30;99.90;;;;;;4905860;29;20467;-70
2024/03/20 17:38:30;;;;;;;14.80;8.67;;;14.20;99.90;;;;;;4913693;29;20474;-69